sensor_id;sensor_type;location;lat;lon;timestamp;temperature;humidity
46784;DHT22;32544;52.832;13.816;2023-03-23T00:00:11;23.60;46.70
46784;DHT22;32544;52.832;13.816;2023-03-23T00:01:13;23.60;46.70
46784;DHT22;32544;52.832;13.816;2023-03-23T00:02:14;23.60;46.70
46784;DHT22;32544;52.832;13.816;2023-03-23T00:03:16;23.60;46.70
46784;DHT22;32544;52.832;13.816;2023-03-23T00:04:17;23.60;46.70
46784;DHT22;32544;52.832;13.816;2023-03-23T00:05:18;23.60;46.70
46784;DHT22;32544;52.832;13.816;2023-03-23T00:06:19;23.60;47.40
46784;DHT22;32544;52.832;13.816;2023-03-23T00:07:20;23.60;46.70
46784;DHT22;32544;52.832;13.816;2023-03-23T00:08:21;23.60;46.80
46784;DHT22;32544;52.832;13.816;2023-03-23T00:09:22;23.60;46.70
46784;DHT22;32544;52.832;13.816;2023-03-23T00:10:24;23.60;46.70
46784;DHT22;32544;52.832;13.816;2023-03-23T00:11:27;23.60;46.70
46784;DHT22;32544;52.832;13.816;2023-03-23T00:12:31;23.60;46.70
46784;DHT22;32544;52.832;13.816;2023-03-23T00:13:34;23.60;46.70
46784;DHT22;32544;52.832;13.816;2023-03-23T00:14:35;23.60;46.70
46784;DHT22;32544;52.832;13.816;2023-03-23T00:15:41;23.60;46.70
46784;DHT22;32544;52.832;13.816;2023-03-23T00:16:42;23.60;46.70
46784;DHT22;32544;52.832;13.816;2023-03-23T00:17:43;23.60;46.70
46784;DHT22;32544;52.832;13.816;2023-03-23T00:18:47;23.60;46.70
46784;DHT22;32544;52.832;13.816;2023-03-23T00:19:48;23.50;46.70
46784;DHT22;32544;52.832;13.816;2023-03-23T00:21:49;23.60;46.70
46784;DHT22;32544;52.832;13.816;2023-03-23T00:22:53;23.60;46.70
46784;DHT22;32544;52.832;13.816;2023-03-23T00:24:07;23.60;46.70
46784;DHT22;32544;52.832;13.816;2023-03-23T00:25:08;23.60;46.70
46784;DHT22;32544;52.832;13.816;2023-03-23T00:26:09;23.60;46.70
46784;DHT22;32544;52.832;13.816;2023-03-23T00:27:09;23.60;46.70
46784;DHT22;32544;52.832;13.816;2023-03-23T00:28:12;23.50;46.70
46784;DHT22;32544;52.832;13.816;2023-03-23T00:29:15;23.60;46.80
46784;DHT22;32544;52.832;13.816;2023-03-23T00:30:16;23.50;46.70
46784;DHT22;32544;52.832;13.816;2023-03-23T00:31:18;23.50;46.70
46784;DHT22;32544;52.832;13.816;2023-03-23T00:32:20;23.50;46.70
46784;DHT22;32544;52.832;13.816;2023-03-23T00:33:21;23.50;46.70
46784;DHT22;32544;52.832;13.816;2023-03-23T00:34:22;23.50;46.70
46784;DHT22;32544;52.832;13.816;2023-03-23T00:35:25;23.50;46.70
46784;DHT22;32544;52.832;13.816;2023-03-23T00:36:28;23.60;46.70
46784;DHT22;32544;52.832;13.816;2023-03-23T00:37:29;23.50;46.70
46784;DHT22;32544;52.832;13.816;2023-03-23T00:38:29;23.60;46.70
46784;DHT22;32544;52.832;13.816;2023-03-23T00:39:30;23.60;46.70
46784;DHT22;32544;52.832;13.816;2023-03-23T00:40:31;23.50;46.70
46784;DHT22;32544;52.832;13.816;2023-03-23T00:41:35;23.50;46.70
46784;DHT22;32544;52.832;13.816;2023-03-23T00:42:37;23.50;46.70
46784;DHT22;32544;52.832;13.816;2023-03-23T00:43:38;23.60;46.70
46784;DHT22;32544;52.832;13.816;2023-03-23T00:44:39;23.60;46.70
46784;DHT22;32544;52.832;13.816;2023-03-23T00:45:40;23.60;46.70
46784;DHT22;32544;52.832;13.816;2023-03-23T00:46:41;23.50;46.60
46784;DHT22;32544;52.832;13.816;2023-03-23T00:47:45;23.60;46.90
46784;DHT22;32544;52.832;13.816;2023-03-23T00:48:51;23.60;46.70
46784;DHT22;32544;52.832;13.816;2023-03-23T00:49:51;23.60;46.70
46784;DHT22;32544;52.832;13.816;2023-03-23T00:50:53;23.50;46.70
46784;DHT22;32544;52.832;13.816;2023-03-23T00:51:56;23.50;46.60
46784;DHT22;32544;52.832;13.816;2023-03-23T00:52:57;23.50;46.60
46784;DHT22;32544;52.832;13.816;2023-03-23T00:53:58;23.50;46.60
46784;DHT22;32544;52.832;13.816;2023-03-23T00:54:59;23.50;46.70
46784;DHT22;32544;52.832;13.816;2023-03-23T00:55:59;23.50;46.60
46784;DHT22;32544;52.832;13.816;2023-03-23T00:57:00;23.50;46.70
46784;DHT22;32544;52.832;13.816;2023-03-23T00:58:01;23.50;46.70
46784;DHT22;32544;52.832;13.816;2023-03-23T00:59:02;23.50;46.60
46784;DHT22;32544;52.832;13.816;2023-03-23T01:00:03;23.50;46.70
46784;DHT22;32544;52.832;13.816;2023-03-23T01:01:10;23.50;46.60
46784;DHT22;32544;52.832;13.816;2023-03-23T01:02:10;23.50;46.70
46784;DHT22;32544;52.832;13.816;2023-03-23T01:03:11;23.50;46.70
46784;DHT22;32544;52.832;13.816;2023-03-23T01:04:18;23.50;46.70
46784;DHT22;32544;52.832;13.816;2023-03-23T01:05:21;23.50;46.70
46784;DHT22;32544;52.832;13.816;2023-03-23T01:06:22;23.50;46.60
46784;DHT22;32544;52.832;13.816;2023-03-23T01:07:22;23.50;46.70
46784;DHT22;32544;52.832;13.816;2023-03-23T01:08:24;23.50;46.70
46784;DHT22;32544;52.832;13.816;2023-03-23T01:09:25;23.50;46.60
46784;DHT22;32544;52.832;13.816;2023-03-23T01:10:27;23.50;46.60
46784;DHT22;32544;52.832;13.816;2023-03-23T01:11:28;23.50;46.60
46784;DHT22;32544;52.832;13.816;2023-03-23T01:12:28;23.50;46.60
46784;DHT22;32544;52.832;13.816;2023-03-23T01:13:30;23.50;46.60
46784;DHT22;32544;52.832;13.816;2023-03-23T01:14:30;23.60;46.70
46784;DHT22;32544;52.832;13.816;2023-03-23T01:15:31;23.50;46.60
46784;DHT22;32544;52.832;13.816;2023-03-23T01:16:32;23.50;46.60
46784;DHT22;32544;52.832;13.816;2023-03-23T01:17:32;23.50;46.60
46784;DHT22;32544;52.832;13.816;2023-03-23T01:18:33;23.50;46.60
46784;DHT22;32544;52.832;13.816;2023-03-23T01:19:33;23.50;46.60
46784;DHT22;32544;52.832;13.816;2023-03-23T01:20:35;23.50;46.60
46784;DHT22;32544;52.832;13.816;2023-03-23T01:21:36;23.50;46.60
46784;DHT22;32544;52.832;13.816;2023-03-23T01:22:37;23.50;47.30
46784;DHT22;32544;52.832;13.816;2023-03-23T01:23:38;23.50;46.60
46784;DHT22;32544;52.832;13.816;2023-03-23T01:24:39;23.50;46.60
46784;DHT22;32544;52.832;13.816;2023-03-23T01:25:40;23.50;46.60
46784;DHT22;32544;52.832;13.816;2023-03-23T01:26:40;23.50;46.60
46784;DHT22;32544;52.832;13.816;2023-03-23T01:27:41;23.50;46.60
46784;DHT22;32544;52.832;13.816;2023-03-23T01:28:42;23.50;46.60
46784;DHT22;32544;52.832;13.816;2023-03-23T01:29:43;23.50;46.60
46784;DHT22;32544;52.832;13.816;2023-03-23T01:30:44;23.50;46.60
46784;DHT22;32544;52.832;13.816;2023-03-23T01:31:44;23.50;46.60
46784;DHT22;32544;52.832;13.816;2023-03-23T01:32:45;23.50;46.60
46784;DHT22;32544;52.832;13.816;2023-03-23T01:33:46;23.50;46.60
46784;DHT22;32544;52.832;13.816;2023-03-23T01:34:46;23.50;46.60
46784;DHT22;32544;52.832;13.816;2023-03-23T01:35:47;23.50;46.60
46784;DHT22;32544;52.832;13.816;2023-03-23T01:36:48;23.50;46.60
46784;DHT22;32544;52.832;13.816;2023-03-23T01:37:48;23.50;46.60
46784;DHT22;32544;52.832;13.816;2023-03-23T01:38:49;23.50;46.60
46784;DHT22;32544;52.832;13.816;2023-03-23T01:39:50;23.50;46.60
46784;DHT22;32544;52.832;13.816;2023-03-23T01:40:51;23.50;46.60
46784;DHT22;32544;52.832;13.816;2023-03-23T01:41:51;23.50;46.60
46784;DHT22;32544;52.832;13.816;2023-03-23T01:42:55;23.50;46.60
46784;DHT22;32544;52.832;13.816;2023-03-23T01:46:22;23.50;46.60
46784;DHT22;32544;52.832;13.816;2023-03-23T01:47:22;23.50;46.60
46784;DHT22;32544;52.832;13.816;2023-03-23T01:49:27;23.40;46.50
46784;DHT22;32544;52.832;13.816;2023-03-23T01:50:30;23.50;46.50
46784;DHT22;32544;52.832;13.816;2023-03-23T01:51:32;23.40;46.50
46784;DHT22;32544;52.832;13.816;2023-03-23T01:52:35;23.50;46.50
46784;DHT22;32544;52.832;13.816;2023-03-23T01:53:38;23.40;46.50
46784;DHT22;32544;52.832;13.816;2023-03-23T01:54:41;23.40;46.50
46784;DHT22;32544;52.832;13.816;2023-03-23T01:55:45;23.50;46.50
46784;DHT22;32544;52.832;13.816;2023-03-23T01:56:52;23.40;46.50
46784;DHT22;32544;52.832;13.816;2023-03-23T01:57:54;23.40;46.50
46784;DHT22;32544;52.832;13.816;2023-03-23T01:58:56;23.40;46.50
46784;DHT22;32544;52.832;13.816;2023-03-23T01:59:59;23.40;46.50
46784;DHT22;32544;52.832;13.816;2023-03-23T02:01:14;23.40;46.50
46784;DHT22;32544;52.832;13.816;2023-03-23T02:02:16;23.40;46.50
46784;DHT22;32544;52.832;13.816;2023-03-23T02:03:19;23.40;46.50
46784;DHT22;32544;52.832;13.816;2023-03-23T02:04:20;23.40;46.50
46784;DHT22;32544;52.832;13.816;2023-03-23T02:05:24;23.40;46.50
46784;DHT22;32544;52.832;13.816;2023-03-23T02:06:27;23.40;46.50
46784;DHT22;32544;52.832;13.816;2023-03-23T02:07:44;23.40;46.60
46784;DHT22;32544;52.832;13.816;2023-03-23T02:08:45;23.40;46.60
46784;DHT22;32544;52.832;13.816;2023-03-23T02:09:49;23.40;46.60
46784;DHT22;32544;52.832;13.816;2023-03-23T02:10:50;23.40;46.60
46784;DHT22;32544;52.832;13.816;2023-03-23T02:11:51;23.40;46.60
46784;DHT22;32544;52.832;13.816;2023-03-23T02:12:53;23.40;46.60
46784;DHT22;32544;52.832;13.816;2023-03-23T02:13:54;23.40;46.60
46784;DHT22;32544;52.832;13.816;2023-03-23T02:14:54;23.40;46.60
46784;DHT22;32544;52.832;13.816;2023-03-23T02:16:07;23.40;46.60
46784;DHT22;32544;52.832;13.816;2023-03-23T02:18:19;23.40;46.60
46784;DHT22;32544;52.832;13.816;2023-03-23T02:20:38;23.40;47.30
46784;DHT22;32544;52.832;13.816;2023-03-23T02:21:51;23.40;46.70
46784;DHT22;32544;52.832;13.816;2023-03-23T02:25:33;23.30;46.70
46784;DHT22;32544;52.832;13.816;2023-03-23T02:26:50;23.30;46.70
46784;DHT22;32544;52.832;13.816;2023-03-23T02:33:46;23.40;46.70
46784;DHT22;32544;52.832;13.816;2023-03-23T02:34:53;23.40;46.70
46784;DHT22;32544;52.832;13.816;2023-03-23T02:38:38;23.40;46.60
46784;DHT22;32544;52.832;13.816;2023-03-23T02:39:45;23.30;46.60
46784;DHT22;32544;52.832;13.816;2023-03-23T02:40:48;23.40;46.60
46784;DHT22;32544;52.832;13.816;2023-03-23T02:42:02;23.30;46.60
46784;DHT22;32544;52.832;13.816;2023-03-23T02:43:06;23.40;46.60
46784;DHT22;32544;52.832;13.816;2023-03-23T02:44:07;23.40;46.60
46784;DHT22;32544;52.832;13.816;2023-03-23T02:45:10;23.40;46.60
46784;DHT22;32544;52.832;13.816;2023-03-23T02:46:12;23.40;46.60
46784;DHT22;32544;52.832;13.816;2023-03-23T02:47:16;23.40;46.60
46784;DHT22;32544;52.832;13.816;2023-03-23T02:48:18;23.40;47.20
46784;DHT22;32544;52.832;13.816;2023-03-23T02:49:21;23.40;46.60
46784;DHT22;32544;52.832;13.816;2023-03-23T02:50:23;23.40;46.60
46784;DHT22;32544;52.832;13.816;2023-03-23T02:51:24;23.40;46.50
46784;DHT22;32544;52.832;13.816;2023-03-23T02:52:27;23.40;46.50
46784;DHT22;32544;52.832;13.816;2023-03-23T02:53:28;23.40;46.60
46784;DHT22;32544;52.832;13.816;2023-03-23T02:54:31;23.40;46.60
46784;DHT22;32544;52.832;13.816;2023-03-23T02:55:31;23.40;46.50
46784;DHT22;32544;52.832;13.816;2023-03-23T02:56:36;23.40;46.50
46784;DHT22;32544;52.832;13.816;2023-03-23T02:57:42;23.40;46.50
46784;DHT22;32544;52.832;13.816;2023-03-23T02:58:45;23.40;46.50
46784;DHT22;32544;52.832;13.816;2023-03-23T02:59:46;23.40;46.50
46784;DHT22;32544;52.832;13.816;2023-03-23T03:00:48;23.40;46.60
46784;DHT22;32544;52.832;13.816;2023-03-23T03:01:57;23.40;46.60
46784;DHT22;32544;52.832;13.816;2023-03-23T03:03:00;23.40;46.60
46784;DHT22;32544;52.832;13.816;2023-03-23T03:04:10;23.40;46.60
46784;DHT22;32544;52.832;13.816;2023-03-23T03:06:33;23.40;46.60
46784;DHT22;32544;52.832;13.816;2023-03-23T03:09:42;23.40;46.60
46784;DHT22;32544;52.832;13.816;2023-03-23T03:11:50;23.40;46.50
46784;DHT22;32544;52.832;13.816;2023-03-23T03:13:05;23.40;46.60
46784;DHT22;32544;52.832;13.816;2023-03-23T03:14:13;23.40;46.50
46784;DHT22;32544;52.832;13.816;2023-03-23T03:17:22;23.40;46.50
46784;DHT22;32544;52.832;13.816;2023-03-23T03:18:28;23.40;46.50
46784;DHT22;32544;52.832;13.816;2023-03-23T03:19:35;23.40;46.50
46784;DHT22;32544;52.832;13.816;2023-03-23T03:20:40;23.40;46.50
46784;DHT22;32544;52.832;13.816;2023-03-23T03:21:43;23.40;46.50
46784;DHT22;32544;52.832;13.816;2023-03-23T03:22:45;23.40;46.50
46784;DHT22;32544;52.832;13.816;2023-03-23T03:23:46;23.50;46.60
46784;DHT22;32544;52.832;13.816;2023-03-23T03:24:49;23.50;46.50
46784;DHT22;32544;52.832;13.816;2023-03-23T03:25:50;23.50;46.50
46784;DHT22;32544;52.832;13.816;2023-03-23T03:27:00;23.50;46.50
46784;DHT22;32544;52.832;13.816;2023-03-23T03:28:33;23.50;46.50
46784;DHT22;32544;52.832;13.816;2023-03-23T03:29:34;23.50;46.40
46784;DHT22;32544;52.832;13.816;2023-03-23T03:30:36;23.60;46.40
46784;DHT22;32544;52.832;13.816;2023-03-23T03:31:38;23.60;46.40
46784;DHT22;32544;52.832;13.816;2023-03-23T03:32:49;23.60;46.40
46784;DHT22;32544;52.832;13.816;2023-03-23T03:33:54;23.60;46.30
46784;DHT22;32544;52.832;13.816;2023-03-23T03:34:54;23.60;46.30
46784;DHT22;32544;52.832;13.816;2023-03-23T03:35:55;23.60;46.20
46784;DHT22;32544;52.832;13.816;2023-03-23T03:36:57;23.60;46.20
46784;DHT22;32544;52.832;13.816;2023-03-23T03:38:04;23.60;46.20
46784;DHT22;32544;52.832;13.816;2023-03-23T03:39:05;23.60;46.80
46784;DHT22;32544;52.832;13.816;2023-03-23T03:40:09;23.70;46.20
46784;DHT22;32544;52.832;13.816;2023-03-23T03:41:13;23.70;46.50
46784;DHT22;32544;52.832;13.816;2023-03-23T03:42:13;23.70;46.20
46784;DHT22;32544;52.832;13.816;2023-03-23T03:43:14;23.70;46.20
46784;DHT22;32544;52.832;13.816;2023-03-23T03:44:15;23.70;46.10
46784;DHT22;32544;52.832;13.816;2023-03-23T03:45:17;23.70;46.20
46784;DHT22;32544;52.832;13.816;2023-03-23T03:46:17;23.70;46.10
46784;DHT22;32544;52.832;13.816;2023-03-23T03:47:18;23.70;46.10
46784;DHT22;32544;52.832;13.816;2023-03-23T03:48:19;23.70;46.10
46784;DHT22;32544;52.832;13.816;2023-03-23T03:49:19;23.70;46.00
46784;DHT22;32544;52.832;13.816;2023-03-23T03:50:20;23.70;46.10
46784;DHT22;32544;52.832;13.816;2023-03-23T03:51:21;23.70;46.00
46784;DHT22;32544;52.832;13.816;2023-03-23T03:52:24;23.80;46.10
46784;DHT22;32544;52.832;13.816;2023-03-23T03:53:28;23.70;46.00
46784;DHT22;32544;52.832;13.816;2023-03-23T03:54:29;23.70;46.00
46784;DHT22;32544;52.832;13.816;2023-03-23T03:55:29;23.70;46.00
46784;DHT22;32544;52.832;13.816;2023-03-23T03:56:35;23.80;46.00
46784;DHT22;32544;52.832;13.816;2023-03-23T03:57:56;23.70;46.00
46784;DHT22;32544;52.832;13.816;2023-03-23T03:59:26;23.80;46.10
46784;DHT22;32544;52.832;13.816;2023-03-23T04:00:48;23.70;46.00
46784;DHT22;32544;52.832;13.816;2023-03-23T04:01:53;23.70;46.00
46784;DHT22;32544;52.832;13.816;2023-03-23T04:02:55;23.70;46.00
46784;DHT22;32544;52.832;13.816;2023-03-23T04:04:11;23.70;46.00
46784;DHT22;32544;52.832;13.816;2023-03-23T04:05:12;23.70;46.10
46784;DHT22;32544;52.832;13.816;2023-03-23T04:06:13;23.70;46.00
46784;DHT22;32544;52.832;13.816;2023-03-23T04:07:14;23.70;46.00
46784;DHT22;32544;52.832;13.816;2023-03-23T04:08:16;23.70;46.00
46784;DHT22;32544;52.832;13.816;2023-03-23T04:09:18;23.70;46.00
46784;DHT22;32544;52.832;13.816;2023-03-23T04:10:21;23.70;46.00
46784;DHT22;32544;52.832;13.816;2023-03-23T04:11:26;23.70;46.00
46784;DHT22;32544;52.832;13.816;2023-03-23T04:12:46;23.70;46.00
46784;DHT22;32544;52.832;13.816;2023-03-23T04:14:07;23.70;46.00
46784;DHT22;32544;52.832;13.816;2023-03-23T04:15:16;23.70;46.00
46784;DHT22;32544;52.832;13.816;2023-03-23T04:16:18;23.70;46.10
46784;DHT22;32544;52.832;13.816;2023-03-23T04:17:19;23.70;46.10
46784;DHT22;32544;52.832;13.816;2023-03-23T04:18:21;23.70;46.10
46784;DHT22;32544;52.832;13.816;2023-03-23T04:19:23;23.70;46.20
46784;DHT22;32544;52.832;13.816;2023-03-23T04:20:23;23.70;46.10
46784;DHT22;32544;52.832;13.816;2023-03-23T04:21:25;23.70;46.10
46784;DHT22;32544;52.832;13.816;2023-03-23T04:22:29;23.70;46.10
46784;DHT22;32544;52.832;13.816;2023-03-23T04:23:34;23.70;46.10
46784;DHT22;32544;52.832;13.816;2023-03-23T04:24:37;23.70;46.10
46784;DHT22;32544;52.832;13.816;2023-03-23T04:25:41;23.70;46.10
46784;DHT22;32544;52.832;13.816;2023-03-23T04:26:42;23.70;46.10
46784;DHT22;32544;52.832;13.816;2023-03-23T04:27:54;23.70;46.20
46784;DHT22;32544;52.832;13.816;2023-03-23T04:29:00;23.70;46.20
46784;DHT22;32544;52.832;13.816;2023-03-23T04:30:04;23.70;46.20
46784;DHT22;32544;52.832;13.816;2023-03-23T04:31:11;23.70;46.20
46784;DHT22;32544;52.832;13.816;2023-03-23T04:32:15;23.60;46.20
46784;DHT22;32544;52.832;13.816;2023-03-23T04:33:23;23.70;46.20
46784;DHT22;32544;52.832;13.816;2023-03-23T04:34:27;23.70;46.20
46784;DHT22;32544;52.832;13.816;2023-03-23T04:35:28;23.60;46.20
46784;DHT22;32544;52.832;13.816;2023-03-23T04:36:49;23.60;46.20
46784;DHT22;32544;52.832;13.816;2023-03-23T04:37:55;23.60;46.20
46784;DHT22;32544;52.832;13.816;2023-03-23T04:38:56;23.60;46.20
46784;DHT22;32544;52.832;13.816;2023-03-23T04:39:58;23.60;46.20
46784;DHT22;32544;52.832;13.816;2023-03-23T04:41:06;23.60;46.20
46784;DHT22;32544;52.832;13.816;2023-03-23T04:42:27;23.60;46.20
46784;DHT22;32544;52.832;13.816;2023-03-23T04:43:47;23.60;46.30
46784;DHT22;32544;52.832;13.816;2023-03-23T04:45:06;23.60;46.30
46784;DHT22;32544;52.832;13.816;2023-03-23T04:46:10;23.60;46.30
46784;DHT22;32544;52.832;13.816;2023-03-23T04:47:11;23.60;46.30
46784;DHT22;32544;52.832;13.816;2023-03-23T04:48:19;23.60;46.30
46784;DHT22;32544;52.832;13.816;2023-03-23T04:49:32;23.60;46.30
46784;DHT22;32544;52.832;13.816;2023-03-23T04:50:45;23.60;46.30
46784;DHT22;32544;52.832;13.816;2023-03-23T04:51:55;23.60;46.40
46784;DHT22;32544;52.832;13.816;2023-03-23T04:53:13;23.60;46.30
46784;DHT22;32544;52.832;13.816;2023-03-23T04:54:15;23.60;46.40
46784;DHT22;32544;52.832;13.816;2023-03-23T04:55:22;23.60;46.40
46784;DHT22;32544;52.832;13.816;2023-03-23T04:56:29;23.60;46.50
46784;DHT22;32544;52.832;13.816;2023-03-23T04:57:31;23.60;46.40
46784;DHT22;32544;52.832;13.816;2023-03-23T04:58:51;23.60;46.40
46784;DHT22;32544;52.832;13.816;2023-03-23T05:00:10;23.60;46.40
46784;DHT22;32544;52.832;13.816;2023-03-23T05:01:28;23.60;47.10
46784;DHT22;32544;52.832;13.816;2023-03-23T05:02:42;23.50;46.40
46784;DHT22;32544;52.832;13.816;2023-03-23T05:03:43;23.50;46.50
46784;DHT22;32544;52.832;13.816;2023-03-23T05:04:45;23.50;46.40
46784;DHT22;32544;52.832;13.816;2023-03-23T05:05:49;23.50;46.40
46784;DHT22;32544;52.832;13.816;2023-03-23T05:06:54;23.50;46.50
46784;DHT22;32544;52.832;13.816;2023-03-23T05:08:00;23.50;46.40
46784;DHT22;32544;52.832;13.816;2023-03-23T05:09:03;23.50;46.40
46784;DHT22;32544;52.832;13.816;2023-03-23T05:10:05;23.50;46.40
46784;DHT22;32544;52.832;13.816;2023-03-23T05:11:06;23.50;46.40
46784;DHT22;32544;52.832;13.816;2023-03-23T05:12:11;23.50;46.40
46784;DHT22;32544;52.832;13.816;2023-03-23T05:13:23;23.50;46.50
46784;DHT22;32544;52.832;13.816;2023-03-23T05:14:26;23.50;46.50
46784;DHT22;32544;52.832;13.816;2023-03-23T05:15:42;23.50;46.50
46784;DHT22;32544;52.832;13.816;2023-03-23T05:16:43;23.50;46.50
46784;DHT22;32544;52.832;13.816;2023-03-23T05:17:47;23.50;46.50
46784;DHT22;32544;52.832;13.816;2023-03-23T05:18:52;23.50;46.50
46784;DHT22;32544;52.832;13.816;2023-03-23T05:19:53;23.50;46.50
46784;DHT22;32544;52.832;13.816;2023-03-23T05:21:15;23.50;46.50
46784;DHT22;32544;52.832;13.816;2023-03-23T05:22:19;23.50;46.50
46784;DHT22;32544;52.832;13.816;2023-03-23T05:23:23;23.50;46.50
46784;DHT22;32544;52.832;13.816;2023-03-23T05:24:33;23.50;46.50
46784;DHT22;32544;52.832;13.816;2023-03-23T05:25:37;23.50;46.50
46784;DHT22;32544;52.832;13.816;2023-03-23T05:26:48;23.50;46.50
46784;DHT22;32544;52.832;13.816;2023-03-23T05:27:55;23.50;46.50
46784;DHT22;32544;52.832;13.816;2023-03-23T05:29:14;23.50;46.50
46784;DHT22;32544;52.832;13.816;2023-03-23T05:30:25;23.50;47.10
46784;DHT22;32544;52.832;13.816;2023-03-23T05:31:26;23.50;46.50
46784;DHT22;32544;52.832;13.816;2023-03-23T05:32:27;23.50;46.50
46784;DHT22;32544;52.832;13.816;2023-03-23T05:33:29;23.50;46.50
46784;DHT22;32544;52.832;13.816;2023-03-23T05:34:41;23.50;46.50
46784;DHT22;32544;52.832;13.816;2023-03-23T05:35:43;23.50;46.50
46784;DHT22;32544;52.832;13.816;2023-03-23T05:36:45;23.50;46.50
46784;DHT22;32544;52.832;13.816;2023-03-23T05:38:00;23.50;46.50
46784;DHT22;32544;52.832;13.816;2023-03-23T05:39:02;23.50;46.50
46784;DHT22;32544;52.832;13.816;2023-03-23T05:40:17;23.50;46.50
46784;DHT22;32544;52.832;13.816;2023-03-23T05:41:22;23.50;46.50
46784;DHT22;32544;52.832;13.816;2023-03-23T05:42:24;23.50;46.50
46784;DHT22;32544;52.832;13.816;2023-03-23T05:43:34;23.50;46.50
46784;DHT22;32544;52.832;13.816;2023-03-23T05:45:02;23.50;46.50
46784;DHT22;32544;52.832;13.816;2023-03-23T05:46:03;23.50;46.50
46784;DHT22;32544;52.832;13.816;2023-03-23T05:47:04;23.50;46.50
46784;DHT22;32544;52.832;13.816;2023-03-23T05:48:05;23.50;46.50
46784;DHT22;32544;52.832;13.816;2023-03-23T05:49:06;23.50;46.50
46784;DHT22;32544;52.832;13.816;2023-03-23T05:50:12;23.50;46.50
46784;DHT22;32544;52.832;13.816;2023-03-23T05:51:14;23.50;46.50
46784;DHT22;32544;52.832;13.816;2023-03-23T05:52:17;23.50;46.50
46784;DHT22;32544;52.832;13.816;2023-03-23T05:53:18;23.50;46.50
46784;DHT22;32544;52.832;13.816;2023-03-23T05:54:19;23.50;46.50
46784;DHT22;32544;52.832;13.816;2023-03-23T05:55:22;23.50;46.50
46784;DHT22;32544;52.832;13.816;2023-03-23T05:56:32;23.50;46.50
46784;DHT22;32544;52.832;13.816;2023-03-23T05:57:58;23.50;46.50
46784;DHT22;32544;52.832;13.816;2023-03-23T05:59:04;23.50;46.50
46784;DHT22;32544;52.832;13.816;2023-03-23T06:00:08;23.50;46.50
46784;DHT22;32544;52.832;13.816;2023-03-23T06:01:21;23.50;46.50
46784;DHT22;32544;52.832;13.816;2023-03-23T06:02:23;23.50;46.50
46784;DHT22;32544;52.832;13.816;2023-03-23T06:03:26;23.50;46.50
46784;DHT22;32544;52.832;13.816;2023-03-23T06:04:52;23.50;46.50
46784;DHT22;32544;52.832;13.816;2023-03-23T06:06:02;23.50;46.50
46784;DHT22;32544;52.832;13.816;2023-03-23T06:07:13;23.50;46.50
46784;DHT22;32544;52.832;13.816;2023-03-23T06:08:20;23.50;46.40
46784;DHT22;32544;52.832;13.816;2023-03-23T06:09:20;23.50;46.40
46784;DHT22;32544;52.832;13.816;2023-03-23T06:10:56;23.50;46.40
46784;DHT22;32544;52.832;13.816;2023-03-23T06:11:57;23.50;46.40
46784;DHT22;32544;52.832;13.816;2023-03-23T06:13:08;23.50;46.50
46784;DHT22;32544;52.832;13.816;2023-03-23T06:14:29;23.50;46.40
46784;DHT22;32544;52.832;13.816;2023-03-23T06:15:29;23.50;46.50
46784;DHT22;32544;52.832;13.816;2023-03-23T06:16:31;23.50;46.50
46784;DHT22;32544;52.832;13.816;2023-03-23T06:17:35;23.50;46.50
46784;DHT22;32544;52.832;13.816;2023-03-23T06:18:36;23.50;46.40
46784;DHT22;32544;52.832;13.816;2023-03-23T06:19:54;23.50;46.50
46784;DHT22;32544;52.832;13.816;2023-03-23T06:20:55;23.50;46.40
46784;DHT22;32544;52.832;13.816;2023-03-23T06:22:04;23.50;46.40
46784;DHT22;32544;52.832;13.816;2023-03-23T06:23:17;23.50;46.40
46784;DHT22;32544;52.832;13.816;2023-03-23T06:24:18;23.50;46.50
46784;DHT22;32544;52.832;13.816;2023-03-23T06:25:18;23.50;46.50
46784;DHT22;32544;52.832;13.816;2023-03-23T06:26:19;23.50;46.40
46784;DHT22;32544;52.832;13.816;2023-03-23T06:27:25;23.50;46.40
46784;DHT22;32544;52.832;13.816;2023-03-23T06:28:26;23.50;46.40
46784;DHT22;32544;52.832;13.816;2023-03-23T06:29:28;23.50;46.50
46784;DHT22;32544;52.832;13.816;2023-03-23T06:30:29;23.50;46.50
46784;DHT22;32544;52.832;13.816;2023-03-23T06:31:31;23.50;46.40
46784;DHT22;32544;52.832;13.816;2023-03-23T06:32:33;23.50;46.40
46784;DHT22;32544;52.832;13.816;2023-03-23T06:33:36;23.50;46.40
46784;DHT22;32544;52.832;13.816;2023-03-23T06:35:02;23.50;46.50
46784;DHT22;32544;52.832;13.816;2023-03-23T06:36:35;23.50;46.50
46784;DHT22;32544;52.832;13.816;2023-03-23T06:38:05;23.50;46.50
46784;DHT22;32544;52.832;13.816;2023-03-23T06:39:16;23.50;46.50
46784;DHT22;32544;52.832;13.816;2023-03-23T06:40:30;23.50;47.10
46784;DHT22;32544;52.832;13.816;2023-03-23T06:41:31;23.50;46.50
46784;DHT22;32544;52.832;13.816;2023-03-23T06:42:32;23.50;46.70
46784;DHT22;32544;52.832;13.816;2023-03-23T06:43:56;23.50;46.50
46784;DHT22;32544;52.832;13.816;2023-03-23T06:45:02;23.50;46.50
46784;DHT22;32544;52.832;13.816;2023-03-23T06:46:05;23.50;46.50
46784;DHT22;32544;52.832;13.816;2023-03-23T06:47:14;23.50;46.50
46784;DHT22;32544;52.832;13.816;2023-03-23T06:48:20;23.50;46.50
46784;DHT22;32544;52.832;13.816;2023-03-23T06:49:21;23.50;46.50
46784;DHT22;32544;52.832;13.816;2023-03-23T06:50:29;23.50;46.50
46784;DHT22;32544;52.832;13.816;2023-03-23T06:51:31;23.50;46.50
46784;DHT22;32544;52.832;13.816;2023-03-23T06:52:31;23.50;46.50
46784;DHT22;32544;52.832;13.816;2023-03-23T06:53:32;23.50;46.50
46784;DHT22;32544;52.832;13.816;2023-03-23T06:54:34;23.50;46.50
46784;DHT22;32544;52.832;13.816;2023-03-23T06:55:36;23.50;46.50
46784;DHT22;32544;52.832;13.816;2023-03-23T06:56:38;23.50;46.50
46784;DHT22;32544;52.832;13.816;2023-03-23T06:57:39;23.50;46.50
46784;DHT22;32544;52.832;13.816;2023-03-23T06:58:40;23.50;46.50
46784;DHT22;32544;52.832;13.816;2023-03-23T06:59:46;23.50;46.50
46784;DHT22;32544;52.832;13.816;2023-03-23T07:00:47;23.50;46.50
46784;DHT22;32544;52.832;13.816;2023-03-23T07:01:50;23.50;46.50
46784;DHT22;32544;52.832;13.816;2023-03-23T07:02:51;23.50;46.50
46784;DHT22;32544;52.832;13.816;2023-03-23T07:03:51;23.50;46.50
46784;DHT22;32544;52.832;13.816;2023-03-23T07:04:59;23.50;46.50
46784;DHT22;32544;52.832;13.816;2023-03-23T07:06:00;23.50;46.50
46784;DHT22;32544;52.832;13.816;2023-03-23T07:07:05;23.50;46.50